createdAt,value
2023-08-31T00:00:28.230Z,71.60
2023-08-31T00:01:28.296Z,81.40
2023-08-31T00:02:28.366Z,81.30
2023-08-31T00:03:28.303Z,74.20
2023-08-31T00:04:28.318Z,80.10
2023-08-31T00:05:28.243Z,87.70
2023-08-31T00:06:28.252Z,85.30
2023-08-31T00:07:28.243Z,86.20
2023-08-31T00:08:28.301Z,78.60
2023-08-31T00:09:28.169Z,68.70
2023-08-31T00:10:28.189Z,72.70
2023-08-31T00:11:28.205Z,65.00
2023-08-31T00:12:28.139Z,76.60
2023-08-31T00:13:28.157Z,82.90
2023-08-31T00:14:28.197Z,77.70
2023-08-31T00:15:28.092Z,75.70
2023-08-31T00:16:28.109Z,82.00
2023-08-31T00:17:28.188Z,78.30
2023-08-31T00:18:28.111Z,83.30
2023-08-31T00:19:28.112Z,73.70
2023-08-31T00:20:28.114Z,84.70
2023-08-31T00:21:28.117Z,89.60
2023-08-31T00:22:28.093Z,81.70
2023-08-31T00:23:28.128Z,90.10
2023-08-31T00:24:28.035Z,80.90
2023-08-31T00:25:28.036Z,91.60
2023-08-31T00:26:28.077Z,89.10
2023-08-31T00:27:28.053Z,71.70
2023-08-31T00:28:27.990Z,78.70
2023-08-31T00:29:28.004Z,80.10
2023-08-31T00:30:28.099Z,100.20
2023-08-31T00:31:28.001Z,79.90
2023-08-31T00:32:28.076Z,105.20
2023-08-31T00:33:27.982Z,84.00
2023-08-31T00:34:27.979Z,84.50
2023-08-31T00:35:28.005Z,84.60
2023-08-31T00:36:28.021Z,82.90
2023-08-31T00:37:28.032Z,87.60
2023-08-31T00:38:28.060Z,96.80
2023-08-31T00:39:27.943Z,93.80
2023-08-31T00:40:27.993Z,95.40
2023-08-31T00:41:27.956Z,90.00
2023-08-31T00:42:27.902Z,96.70
2023-08-31T00:43:27.925Z,92.10
2023-08-31T00:44:28.000Z,81.80
2023-08-31T00:45:27.915Z,89.00
2023-08-31T00:46:27.985Z,101.30
2023-08-31T00:47:27.906Z,96.50
2023-08-31T00:48:27.898Z,95.70
2023-08-31T00:49:27.856Z,93.50
2023-08-31T00:50:27.925Z,92.00
2023-08-31T00:51:27.846Z,100.10
2023-08-31T00:52:27.892Z,88.80
2023-08-31T00:53:27.907Z,93.50
2023-08-31T00:54:27.827Z,98.00
2023-08-31T00:55:27.832Z,111.40
2023-08-31T00:56:27.886Z,97.80
2023-08-31T00:57:27.904Z,86.30
2023-08-31T00:58:27.776Z,92.90
2023-08-31T00:59:27.800Z,89.70
2023-08-31T01:00:27.807Z,82.80
2023-08-31T01:01:27.837Z,77.90
2023-08-31T01:02:31.506Z,85.10
2023-08-31T01:03:28.866Z,86.30
2023-08-31T01:04:27.830Z,99.90
2023-08-31T01:05:27.808Z,80.20
2023-08-31T01:06:27.708Z,81.90
2023-08-31T01:07:27.726Z,81.40
2023-08-31T01:08:27.830Z,78.20
2023-08-31T01:09:27.740Z,83.60
2023-08-31T01:10:27.793Z,82.30
2023-08-31T01:11:27.707Z,84.70
2023-08-31T01:12:27.752Z,85.50
2023-08-31T01:13:27.730Z,89.00
2023-08-31T01:14:27.779Z,91.90
2023-08-31T01:15:27.750Z,76.80
2023-08-31T01:16:27.767Z,86.00
2023-08-31T01:17:27.775Z,112.40
2023-08-31T01:18:27.696Z,98.60
2023-08-31T01:19:27.622Z,93.20
2023-08-31T01:20:27.741Z,92.70
2023-08-31T01:21:27.635Z,98.20
2023-08-31T01:22:27.637Z,83.90
2023-08-31T01:23:27.595Z,76.40
2023-08-31T01:24:27.671Z,80.90
2023-08-31T01:25:27.672Z,100.30
2023-08-31T01:26:27.642Z,93.00
2023-08-31T01:27:27.632Z,75.00
2023-08-31T01:28:27.580Z,91.00
2023-08-31T01:29:27.586Z,87.90
2023-08-31T01:30:27.647Z,90.30
2023-08-31T01:31:27.579Z,103.70
2023-08-31T01:32:27.588Z,88.10
2023-08-31T01:33:27.568Z,89.00
2023-08-31T01:34:27.545Z,96.60
2023-08-31T01:35:27.608Z,91.90
2023-08-31T01:36:27.540Z,75.40
2023-08-31T01:37:27.524Z,88.70
2023-08-31T01:38:27.570Z,96.70
2023-08-31T01:39:27.579Z,90.30
2023-08-31T01:40:27.507Z,84.50
2023-08-31T01:41:27.552Z,88.00
2023-08-31T01:42:27.526Z,92.40
2023-08-31T01:43:27.473Z,85.20
2023-08-31T01:44:27.604Z,93.20
2023-08-31T01:45:27.555Z,94.70
2023-08-31T01:46:27.570Z,95.80
2023-08-31T01:47:27.433Z,97.80
2023-08-31T01:48:27.421Z,84.30
2023-08-31T01:49:27.498Z,106.10
2023-08-31T01:50:27.498Z,95.60
2023-08-31T01:51:27.413Z,90.90
2023-08-31T01:52:27.409Z,92.60
2023-08-31T01:53:27.427Z,105.50
2023-08-31T01:54:27.407Z,119.30
2023-08-31T01:55:27.425Z,102.40
2023-08-31T01:56:27.462Z,109.90
2023-08-31T01:57:27.372Z,92.20
2023-08-31T01:58:27.358Z,91.50
2023-08-31T01:59:27.394Z,99.90
2023-08-31T02:00:27.361Z,107.30
2023-08-31T02:01:27.396Z,102.20
2023-08-31T02:02:27.471Z,106.90
2023-08-31T02:03:27.448Z,119.00
2023-08-31T02:04:27.317Z,139.20
2023-08-31T02:05:27.388Z,126.20
2023-08-31T02:06:27.300Z,116.40
2023-08-31T02:07:27.302Z,107.10
2023-08-31T02:08:27.381Z,98.00
2023-08-31T02:09:27.272Z,105.70
2023-08-31T02:10:27.335Z,110.50
2023-08-31T02:11:27.272Z,121.40
2023-08-31T02:12:27.258Z,134.50
2023-08-31T02:13:27.258Z,134.70
2023-08-31T02:14:27.293Z,141.00
2023-08-31T02:15:27.286Z,136.30
2023-08-31T02:16:27.216Z,125.20
2023-08-31T02:17:27.298Z,136.40
2023-08-31T02:18:27.291Z,133.70
2023-08-31T02:19:27.188Z,115.20
2023-08-31T02:20:27.311Z,120.80
2023-08-31T02:21:27.192Z,131.90
2023-08-31T02:22:27.188Z,121.30
2023-08-31T02:23:27.210Z,111.30
2023-08-31T02:24:27.253Z,151.30
2023-08-31T02:25:27.231Z,121.60
2023-08-31T02:26:27.209Z,121.90
2023-08-31T02:27:27.192Z,136.90
2023-08-31T02:28:27.159Z,147.10
2023-08-31T02:29:27.153Z,147.00
2023-08-31T02:30:27.159Z,160.30
2023-08-31T02:31:27.181Z,150.60
2023-08-31T02:32:27.196Z,152.80
2023-08-31T02:33:27.102Z,148.80
2023-08-31T02:34:27.103Z,145.20
2023-08-31T02:35:27.104Z,153.70
2023-08-31T02:36:27.087Z,183.40
2023-08-31T02:37:27.093Z,177.10
2023-08-31T02:38:27.123Z,156.50
2023-08-31T02:39:27.086Z,169.90
2023-08-31T02:40:27.048Z,183.70
2023-08-31T02:41:27.109Z,172.60
2023-08-31T02:42:27.053Z,156.00
2023-08-31T02:43:27.038Z,167.80
2023-08-31T02:44:27.094Z,157.70
2023-08-31T02:45:27.044Z,161.40
2023-08-31T02:46:27.050Z,178.80
2023-08-31T02:47:27.012Z,178.00
2023-08-31T02:48:27.173Z,172.50
2023-08-31T02:49:26.996Z,178.00
2023-08-31T02:50:27.029Z,168.40
2023-08-31T02:51:26.976Z,142.50
2023-08-31T02:52:26.948Z,148.30
2023-08-31T02:53:26.945Z,154.20
2023-08-31T02:54:26.953Z,151.90
2023-08-31T02:55:26.960Z,137.00
2023-08-31T02:56:26.997Z,144.80
2023-08-31T02:57:26.931Z,154.60
2023-08-31T02:58:26.931Z,151.60
2023-08-31T02:59:26.914Z,152.70
2023-08-31T03:00:26.937Z,152.40
2023-08-31T03:01:26.909Z,138.90
2023-08-31T03:02:27.007Z,137.20
2023-08-31T03:03:26.898Z,146.40
2023-08-31T03:04:26.870Z,146.10
2023-08-31T03:05:26.879Z,147.70
2023-08-31T03:06:26.869Z,122.40
2023-08-31T03:07:26.863Z,121.00
2023-08-31T03:08:26.925Z,124.00
2023-08-31T03:09:26.869Z,127.70
2023-08-31T03:10:26.822Z,122.90
2023-08-31T03:11:26.809Z,126.50
2023-08-31T03:12:26.821Z,152.00
2023-08-31T03:13:26.820Z,162.40
2023-08-31T03:14:26.936Z,149.60
2023-08-31T03:15:26.854Z,161.10
2023-08-31T03:16:26.841Z,154.60
2023-08-31T03:17:26.792Z,138.70
2023-08-31T03:18:26.778Z,133.90
2023-08-31T03:19:26.908Z,148.90
2023-08-31T03:20:26.856Z,175.90
2023-08-31T03:21:26.772Z,156.60
2023-08-31T03:22:26.759Z,124.80
2023-08-31T03:23:26.758Z,121.80
2023-08-31T03:24:26.750Z,118.30
2023-08-31T03:25:26.776Z,118.00
2023-08-31T03:26:26.767Z,123.90
2023-08-31T03:27:26.687Z,117.50
2023-08-31T03:28:26.696Z,152.90
2023-08-31T03:29:26.701Z,139.50
2023-08-31T03:30:26.718Z,120.80
2023-08-31T03:31:26.722Z,126.90
2023-08-31T03:32:26.723Z,127.20
2023-08-31T03:33:26.659Z,139.90
2023-08-31T03:34:26.716Z,134.60
2023-08-31T03:35:26.715Z,128.10
2023-08-31T03:36:26.667Z,137.60
2023-08-31T03:37:26.683Z,122.50
2023-08-31T03:38:26.701Z,137.30
2023-08-31T03:39:26.702Z,131.90
2023-08-31T03:40:26.710Z,113.40
2023-08-31T03:41:26.726Z,128.70
2023-08-31T03:42:26.675Z,133.30
2023-08-31T03:43:26.671Z,126.60
2023-08-31T03:44:26.642Z,105.90
2023-08-31T03:45:26.600Z,127.00
2023-08-31T03:46:26.617Z,136.70
2023-08-31T03:47:26.648Z,123.50
2023-08-31T03:48:26.584Z,92.20
2023-08-31T03:49:26.545Z,98.70
2023-08-31T03:50:26.640Z,102.70
2023-08-31T03:51:26.614Z,89.60
2023-08-31T03:52:26.556Z,110.50
2023-08-31T03:53:26.514Z,84.80
2023-08-31T03:54:26.601Z,80.00
2023-08-31T03:55:26.578Z,75.90
2023-08-31T03:56:26.653Z,73.70
2023-08-31T03:57:26.572Z,81.70
2023-08-31T03:58:26.484Z,70.50
2023-08-31T03:59:26.578Z,72.30
2023-08-31T04:00:26.512Z,76.90
2023-08-31T04:01:26.593Z,66.10
2023-08-31T04:02:26.580Z,88.00
2023-08-31T04:03:26.588Z,60.10
2023-08-31T04:04:26.519Z,58.50
2023-08-31T04:05:26.430Z,55.80
2023-08-31T04:06:26.458Z,53.20
2023-08-31T04:07:26.458Z,46.80
2023-08-31T04:08:26.497Z,52.00
2023-08-31T04:09:26.544Z,61.20
2023-08-31T04:10:26.392Z,55.60
2023-08-31T04:11:26.464Z,61.80
2023-08-31T04:12:26.415Z,64.10
2023-08-31T04:13:26.454Z,57.50
2023-08-31T04:14:26.522Z,63.90
2023-08-31T04:15:26.470Z,59.30
2023-08-31T04:16:26.406Z,59.60
2023-08-31T04:17:26.415Z,56.80
2023-08-31T04:18:26.419Z,50.40
2023-08-31T04:19:26.393Z,60.40
2023-08-31T04:20:26.416Z,65.50
2023-08-31T04:21:26.369Z,58.30
2023-08-31T04:22:26.365Z,55.30
2023-08-31T04:23:26.355Z,66.20
2023-08-31T04:24:26.330Z,71.00
2023-08-31T04:25:26.340Z,78.30
2023-08-31T04:26:26.373Z,86.60
2023-08-31T04:27:26.401Z,66.60
2023-08-31T04:28:26.236Z,75.00
2023-08-31T04:29:26.290Z,78.30
2023-08-31T04:30:26.232Z,58.40
2023-08-31T04:31:26.293Z,60.70
2023-08-31T04:32:26.325Z,73.40
2023-08-31T04:33:26.267Z,71.70
2023-08-31T04:34:26.232Z,73.10
2023-08-31T04:35:26.262Z,79.60
2023-08-31T04:36:26.236Z,78.10
2023-08-31T04:37:26.257Z,65.10
2023-08-31T04:38:26.333Z,65.50
2023-08-31T04:39:26.304Z,81.50
2023-08-31T04:40:26.252Z,65.10
2023-08-31T04:41:26.173Z,68.20
2023-08-31T04:42:26.171Z,90.30
2023-08-31T04:43:26.131Z,54.50
2023-08-31T04:44:26.289Z,59.80
2023-08-31T04:45:26.140Z,89.20
2023-08-31T04:46:26.155Z,80.70
2023-08-31T04:47:26.176Z,73.40
2023-08-31T04:48:26.110Z,70.80
2023-08-31T04:49:26.117Z,79.70
2023-08-31T04:50:26.128Z,75.20
2023-08-31T04:51:26.082Z,73.50
2023-08-31T04:52:26.146Z,70.80
2023-08-31T04:53:26.154Z,69.40
2023-08-31T04:54:26.104Z,64.30
2023-08-31T04:55:26.067Z,74.10
2023-08-31T04:56:26.120Z,76.40
2023-08-31T04:57:26.106Z,70.30
2023-08-31T04:58:26.071Z,81.60
2023-08-31T04:59:26.104Z,73.50
2023-08-31T05:00:26.022Z,74.40
2023-08-31T05:01:26.078Z,73.40
2023-08-31T05:02:26.116Z,71.00
2023-08-31T05:03:26.010Z,69.00
2023-08-31T05:04:26.032Z,68.40
2023-08-31T05:05:26.041Z,67.00
2023-08-31T05:06:25.971Z,62.70
2023-08-31T05:07:25.975Z,83.50
2023-08-31T05:08:26.032Z,74.60
2023-08-31T05:09:26.032Z,74.20
2023-08-31T05:10:26.044Z,72.60
2023-08-31T05:11:25.968Z,71.50
2023-08-31T05:12:25.955Z,69.10
2023-08-31T05:13:25.979Z,68.20
2023-08-31T05:14:26.034Z,66.10
2023-08-31T05:15:25.933Z,61.50
2023-08-31T05:16:26.085Z,53.90
2023-08-31T05:17:25.991Z,67.00
2023-08-31T05:18:25.904Z,59.20
2023-08-31T05:19:27.774Z,67.30
2023-08-31T05:20:26.010Z,53.40
2023-08-31T05:21:25.847Z,55.50
2023-08-31T05:22:25.928Z,53.80
2023-08-31T05:23:25.934Z,58.70
2023-08-31T05:24:25.951Z,55.30
2023-08-31T05:25:28.458Z,54.50
2023-08-31T05:26:25.984Z,57.30
2023-08-31T05:27:25.906Z,59.90
2023-08-31T05:28:25.839Z,60.00
2023-08-31T05:29:25.844Z,69.10
2023-08-31T05:30:25.848Z,73.50
2023-08-31T05:31:25.866Z,56.50
2023-08-31T05:32:26.009Z,49.20
2023-08-31T05:33:25.842Z,56.50
2023-08-31T05:34:25.777Z,48.60
2023-08-31T05:35:25.873Z,70.00
2023-08-31T05:36:25.776Z,58.40
2023-08-31T05:37:25.856Z,58.90
2023-08-31T05:38:25.800Z,65.80
2023-08-31T05:39:25.801Z,54.50
2023-08-31T05:40:25.833Z,57.40
2023-08-31T05:41:25.760Z,71.70
2023-08-31T05:42:25.860Z,54.80
2023-08-31T05:43:25.736Z,47.30
2023-08-31T05:44:25.792Z,52.30
2023-08-31T05:45:25.735Z,62.00
2023-08-31T05:46:25.792Z,59.10
2023-08-31T05:47:25.735Z,45.90
2023-08-31T05:48:25.722Z,49.70
2023-08-31T05:49:25.714Z,49.80
2023-08-31T05:50:25.730Z,43.40
2023-08-31T05:51:25.716Z,42.90
2023-08-31T05:52:25.726Z,46.70
2023-08-31T05:53:25.710Z,60.90
2023-08-31T05:54:25.686Z,46.80
2023-08-31T05:55:25.722Z,44.40
2023-08-31T05:56:25.752Z,45.60
2023-08-31T05:57:25.627Z,53.30
2023-08-31T05:58:25.698Z,43.30
2023-08-31T05:59:25.600Z,41.00
2023-08-31T06:00:25.677Z,62.00
2023-08-31T06:01:25.740Z,56.70
2023-08-31T06:02:25.786Z,56.00
2023-08-31T06:03:25.557Z,44.00
2023-08-31T06:04:25.624Z,56.40
2023-08-31T06:05:25.611Z,50.00
2023-08-31T06:06:25.576Z,50.80
2023-08-31T06:07:25.622Z,50.40
2023-08-31T06:08:25.614Z,55.00
2023-08-31T06:09:25.779Z,46.60
2023-08-31T06:10:25.534Z,48.60
2023-08-31T06:12:26.447Z,54.40
2023-08-31T06:13:25.584Z,49.40
2023-08-31T06:14:25.654Z,51.20
2023-08-31T06:15:25.564Z,48.60
2023-08-31T06:16:25.618Z,47.50
2023-08-31T06:17:25.580Z,51.00
2023-08-31T06:18:25.480Z,51.10
2023-08-31T06:19:25.561Z,43.80
2023-08-31T06:20:25.547Z,45.20
2023-08-31T06:21:25.532Z,46.00
2023-08-31T06:22:25.516Z,43.50
2023-08-31T06:23:25.498Z,39.20
2023-08-31T06:24:25.526Z,30.90
2023-08-31T06:25:25.901Z,32.50
2023-08-31T06:26:25.979Z,36.90
2023-08-31T06:27:25.412Z,31.30
2023-08-31T06:28:25.474Z,36.40
2023-08-31T06:29:25.445Z,41.90
2023-08-31T06:30:25.422Z,28.00
2023-08-31T06:31:25.597Z,28.30
2023-08-31T06:32:25.580Z,31.90
2023-08-31T06:33:25.420Z,31.00
2023-08-31T06:34:25.375Z,28.20
2023-08-31T06:35:25.399Z,23.00
2023-08-31T06:36:25.338Z,26.00
2023-08-31T06:37:25.383Z,25.80
2023-08-31T06:38:25.420Z,22.80
2023-08-31T06:39:25.395Z,26.40
2023-08-31T06:40:25.372Z,25.40
2023-08-31T06:41:25.386Z,31.20
2023-08-31T06:42:26.602Z,26.40
2023-08-31T06:43:25.354Z,25.40
2023-08-31T06:44:25.329Z,28.40
2023-08-31T06:45:25.281Z,25.20
2023-08-31T06:46:25.646Z,25.50
2023-08-31T06:47:25.257Z,24.90
2023-08-31T06:48:25.318Z,25.90
2023-08-31T06:49:25.268Z,23.20
2023-08-31T06:50:25.380Z,25.60
2023-08-31T06:51:25.455Z,24.50
2023-08-31T06:53:25.308Z,22.70
2023-08-31T06:54:25.274Z,24.80
2023-08-31T06:55:25.230Z,24.10
2023-08-31T06:56:26.135Z,25.80
2023-08-31T06:57:25.182Z,23.40
2023-08-31T06:58:25.221Z,24.40
2023-08-31T06:59:25.265Z,17.50
2023-08-31T07:00:25.163Z,19.90
2023-08-31T07:01:25.262Z,18.80
2023-08-31T07:02:26.394Z,21.10
2023-08-31T07:03:27.371Z,19.60
2023-08-31T07:04:25.174Z,18.30
2023-08-31T07:05:25.136Z,22.00
2023-08-31T07:06:25.126Z,19.60
2023-08-31T07:07:25.174Z,18.50
2023-08-31T07:08:25.161Z,18.40
2023-08-31T07:09:25.111Z,16.50
2023-08-31T07:10:25.135Z,21.00
2023-08-31T07:11:25.164Z,18.10
2023-08-31T07:12:25.138Z,18.10
2023-08-31T07:13:25.107Z,18.40
2023-08-31T07:14:25.172Z,17.80
2023-08-31T07:15:25.102Z,14.30
2023-08-31T07:16:25.198Z,22.20
2023-08-31T07:17:25.131Z,21.00
2023-08-31T07:18:25.079Z,16.40
2023-08-31T07:19:25.040Z,19.70
2023-08-31T07:20:25.229Z,15.00
2023-08-31T07:21:25.047Z,15.40
2023-08-31T07:22:25.097Z,16.80
2023-08-31T07:23:25.060Z,15.50
2023-08-31T07:24:25.069Z,15.50
2023-08-31T07:25:25.090Z,14.70
2023-08-31T07:26:26.087Z,13.90
2023-08-31T07:27:25.020Z,12.70
2023-08-31T07:28:25.006Z,14.50
2023-08-31T07:29:24.996Z,15.50
2023-08-31T07:30:25.030Z,15.00
2023-08-31T07:31:24.984Z,14.10
2023-08-31T07:32:26.051Z,11.60
2023-08-31T07:33:30.941Z,12.30
2023-08-31T07:34:25.913Z,12.10
2023-08-31T07:35:24.955Z,13.20
2023-08-31T07:36:24.964Z,12.30
2023-08-31T07:37:24.909Z,14.30
2023-08-31T07:38:24.982Z,10.50
2023-08-31T07:39:24.931Z,11.80
2023-08-31T07:40:24.891Z,12.40
2023-08-31T07:41:24.949Z,15.30
2023-08-31T07:42:24.881Z,14.20
2023-08-31T07:43:24.939Z,12.20
2023-08-31T07:44:25.967Z,13.20
2023-08-31T07:45:24.878Z,11.60
2023-08-31T07:46:24.946Z,11.80
2023-08-31T07:47:24.859Z,11.20
2023-08-31T07:48:24.902Z,13.50
2023-08-31T07:49:24.797Z,8.80
2023-08-31T07:50:24.897Z,11.50
2023-08-31T07:51:24.799Z,9.60
2023-08-31T07:52:24.852Z,11.60
2023-08-31T07:53:24.866Z,11.10
2023-08-31T07:54:24.806Z,11.80
2023-08-31T07:55:24.840Z,10.50
2023-08-31T07:56:24.875Z,10.90
2023-08-31T07:57:24.776Z,10.70
2023-08-31T07:58:24.807Z,10.00
2023-08-31T07:59:24.811Z,10.00
2023-08-31T08:00:24.839Z,10.50
2023-08-31T08:01:24.831Z,11.50
2023-08-31T08:02:24.990Z,11.70
2023-08-31T08:03:24.923Z,11.80
2023-08-31T08:04:24.742Z,10.50
2023-08-31T08:05:24.706Z,12.00
2023-08-31T08:06:24.738Z,17.20
2023-08-31T08:07:24.765Z,8.90
2023-08-31T08:08:25.762Z,11.70
2023-08-31T08:09:24.754Z,7.80
2023-08-31T08:10:24.664Z,10.10
2023-08-31T08:11:24.705Z,8.20
2023-08-31T08:12:24.671Z,7.30
2023-08-31T08:13:24.710Z,8.70
2023-08-31T08:14:25.786Z,8.70
2023-08-31T08:15:24.720Z,8.80
2023-08-31T08:16:24.721Z,10.10
2023-08-31T08:17:24.623Z,7.70
2023-08-31T08:18:24.662Z,7.10
2023-08-31T08:19:24.671Z,8.90
2023-08-31T08:20:24.670Z,10.10
2023-08-31T08:21:24.589Z,9.70
2023-08-31T08:22:24.675Z,8.10
2023-08-31T08:23:24.669Z,8.10
2023-08-31T08:24:24.646Z,9.60
2023-08-31T08:25:24.573Z,11.00
2023-08-31T08:26:24.700Z,7.20
2023-08-31T08:27:24.559Z,7.10
2023-08-31T08:28:24.606Z,7.10
2023-08-31T08:29:24.555Z,8.80
2023-08-31T08:30:24.574Z,7.50
2023-08-31T08:31:25.777Z,7.70
2023-08-31T08:32:24.728Z,10.90
2023-08-31T08:33:24.528Z,7.00
2023-08-31T08:34:24.519Z,5.70
2023-08-31T08:35:24.573Z,6.20
2023-08-31T08:36:24.490Z,8.90
2023-08-31T08:37:24.489Z,5.00
2023-08-31T08:38:24.572Z,7.60
2023-08-31T08:39:24.510Z,7.10
2023-08-31T08:40:24.474Z,8.50
2023-08-31T08:41:24.518Z,5.80
2023-08-31T08:42:24.503Z,6.70
2023-08-31T08:43:24.499Z,7.10
2023-08-31T08:44:24.573Z,7.10
2023-08-31T08:45:24.467Z,6.30
2023-08-31T08:46:24.486Z,6.90
2023-08-31T08:47:24.503Z,6.80
2023-08-31T08:48:24.377Z,8.10
2023-08-31T08:49:24.404Z,5.30
2023-08-31T08:50:24.531Z,9.40
2023-08-31T08:51:24.381Z,12.10
2023-08-31T08:52:24.439Z,4.50
2023-08-31T08:53:24.395Z,7.60
2023-08-31T08:54:24.352Z,6.90
2023-08-31T08:55:24.366Z,6.40
2023-08-31T08:56:24.439Z,6.60
2023-08-31T08:57:24.413Z,6.10
2023-08-31T08:58:24.397Z,9.00
2023-08-31T08:59:24.387Z,6.60
2023-08-31T09:00:24.323Z,6.10
2023-08-31T09:01:24.492Z,9.30
2023-08-31T09:02:24.400Z,5.30
2023-08-31T09:03:24.305Z,6.90
2023-08-31T09:04:24.313Z,4.70
2023-08-31T09:05:24.430Z,5.80
2023-08-31T09:06:24.335Z,4.90
2023-08-31T09:07:24.270Z,4.90
2023-08-31T09:08:24.381Z,7.20
2023-08-31T09:09:24.308Z,6.60
2023-08-31T09:10:24.314Z,5.40
2023-08-31T09:11:24.349Z,4.80
2023-08-31T09:12:24.229Z,5.20
2023-08-31T09:13:24.212Z,4.60
2023-08-31T09:14:24.268Z,6.40
2023-08-31T09:15:24.289Z,4.90
2023-08-31T09:16:24.311Z,7.90
2023-08-31T09:17:24.323Z,9.40
2023-08-31T09:18:24.224Z,7.30
2023-08-31T09:19:24.227Z,6.70
2023-08-31T09:20:24.237Z,5.80
2023-08-31T09:21:24.170Z,6.00
2023-08-31T09:22:24.146Z,5.20
2023-08-31T09:23:24.182Z,7.20
2023-08-31T09:24:24.149Z,6.50
2023-08-31T09:25:24.176Z,6.10
2023-08-31T09:26:24.159Z,5.30
2023-08-31T09:27:24.251Z,8.30
2023-08-31T09:28:24.141Z,3.60
2023-08-31T09:29:24.161Z,5.50
2023-08-31T09:30:24.143Z,5.30
2023-08-31T09:31:24.179Z,4.50
2023-08-31T09:32:24.366Z,5.70
2023-08-31T09:33:24.121Z,6.50
2023-08-31T09:34:24.077Z,4.30
2023-08-31T09:35:25.492Z,5.20
2023-08-31T09:36:24.032Z,5.70
2023-08-31T09:37:24.054Z,5.50
2023-08-31T09:38:24.131Z,5.40
2023-08-31T09:39:24.078Z,4.20
2023-08-31T09:40:24.089Z,6.10
2023-08-31T09:41:24.073Z,4.00
2023-08-31T09:42:24.013Z,5.20
2023-08-31T09:43:24.017Z,5.40
2023-08-31T09:44:24.095Z,4.20
2023-08-31T09:45:32.334Z,5.80
2023-08-31T09:46:25.013Z,6.90
2023-08-31T09:47:23.990Z,5.30
2023-08-31T09:48:24.065Z,5.00
2023-08-31T09:49:23.995Z,4.80
2023-08-31T09:50:24.062Z,6.40
2023-08-31T09:51:23.938Z,5.70
2023-08-31T09:52:23.964Z,7.80
2023-08-31T09:53:23.947Z,4.50
2023-08-31T09:54:23.970Z,6.60
2023-08-31T09:55:23.908Z,5.10
2023-08-31T09:56:23.951Z,5.70
2023-08-31T09:57:36.169Z,5.90
2023-08-31T09:58:25.009Z,5.20
2023-08-31T09:59:23.960Z,3.40
2023-08-31T10:00:23.849Z,5.60
2023-08-31T10:01:29.826Z,4.10
2023-08-31T10:02:25.054Z,6.40
2023-08-31T10:03:23.966Z,3.00
2023-08-31T10:04:23.906Z,3.80
2023-08-31T10:05:25.669Z,4.30
2023-08-31T10:06:23.912Z,4.10
2023-08-31T10:07:23.837Z,5.90
2023-08-31T10:08:23.917Z,4.10
2023-08-31T10:09:23.875Z,4.00
2023-08-31T10:10:23.817Z,3.90
2023-08-31T10:11:23.803Z,5.70
2023-08-31T10:12:23.911Z,7.80
2023-08-31T10:13:23.840Z,5.30
2023-08-31T10:14:24.843Z,4.60
2023-08-31T10:15:23.880Z,6.40
2023-08-31T10:16:23.819Z,3.70
2023-08-31T10:17:23.820Z,3.40
2023-08-31T10:18:23.808Z,3.40
2023-08-31T10:19:23.790Z,3.60
2023-08-31T10:20:24.800Z,3.40
2023-08-31T10:21:23.856Z,4.20
2023-08-31T10:22:23.741Z,4.10
2023-08-31T10:23:23.769Z,6.60
2023-08-31T10:24:23.695Z,5.20
2023-08-31T10:25:23.722Z,3.90
2023-08-31T10:26:23.752Z,5.50
2023-08-31T10:27:23.682Z,4.20
2023-08-31T10:28:23.740Z,4.50
2023-08-31T10:29:23.697Z,3.70
2023-08-31T10:30:23.682Z,5.60
2023-08-31T10:31:23.915Z,3.90
2023-08-31T10:32:23.849Z,4.80
2023-08-31T10:33:23.667Z,5.90
2023-08-31T10:34:23.625Z,6.50
2023-08-31T10:35:23.663Z,3.40
2023-08-31T10:36:23.657Z,8.00
2023-08-31T10:37:23.681Z,2.70
2023-08-31T10:38:23.724Z,4.70
2023-08-31T10:39:23.585Z,4.50
2023-08-31T10:40:23.560Z,6.10
2023-08-31T10:41:23.645Z,3.40
2023-08-31T10:42:23.606Z,3.60
2023-08-31T10:43:27.136Z,4.40
2023-08-31T10:44:24.666Z,3.40
2023-08-31T10:45:23.541Z,6.20
2023-08-31T10:46:23.536Z,4.00
2023-08-31T10:47:23.618Z,4.50
2023-08-31T10:48:23.517Z,4.30
2023-08-31T10:49:23.566Z,4.30
2023-08-31T10:50:24.626Z,2.60
2023-08-31T10:51:23.552Z,4.30
2023-08-31T10:52:40.435Z,6.30
2023-08-31T10:53:24.520Z,3.40
2023-08-31T10:54:23.534Z,4.60
2023-08-31T10:55:23.468Z,2.40
2023-08-31T10:56:23.601Z,3.50
2023-08-31T10:57:23.520Z,4.90
2023-08-31T10:58:23.453Z,3.90
2023-08-31T10:59:23.483Z,7.00
2023-08-31T11:00:23.497Z,4.20
2023-08-31T11:01:23.494Z,5.20
2023-08-31T11:02:23.486Z,4.70
2023-08-31T11:03:23.590Z,4.70
2023-08-31T11:04:23.621Z,4.60
2023-08-31T11:05:24.868Z,4.20
2023-08-31T11:06:23.457Z,4.50
2023-08-31T11:07:23.433Z,3.30
2023-08-31T11:08:23.422Z,5.70
2023-08-31T11:09:23.383Z,6.70
2023-08-31T11:10:23.387Z,5.70
2023-08-31T11:11:23.409Z,5.40
2023-08-31T11:12:23.354Z,4.60
2023-08-31T11:13:23.399Z,3.80
2023-08-31T11:14:23.457Z,4.30
2023-08-31T11:15:23.440Z,5.60
2023-08-31T11:16:23.395Z,4.60
2023-08-31T11:17:23.297Z,6.80
2023-08-31T11:18:23.372Z,4.00
2023-08-31T11:19:23.369Z,4.30
2023-08-31T11:20:23.379Z,5.20
2023-08-31T11:21:23.289Z,4.10
2023-08-31T11:22:23.262Z,4.60
2023-08-31T11:23:23.356Z,5.00
2023-08-31T11:24:23.318Z,3.90
2023-08-31T11:25:23.237Z,4.30
2023-08-31T11:26:23.384Z,4.10
2023-08-31T11:27:23.265Z,4.90
2023-08-31T11:28:23.297Z,13.40
2023-08-31T11:29:23.268Z,3.80
2023-08-31T11:30:23.241Z,2.90
2023-08-31T11:31:23.337Z,6.80
2023-08-31T11:32:23.286Z,5.10
2023-08-31T11:33:23.253Z,4.20
2023-08-31T11:34:23.249Z,4.60
2023-08-31T11:35:23.248Z,3.90
2023-08-31T11:36:23.250Z,5.80
2023-08-31T11:37:23.168Z,3.30
2023-08-31T11:38:23.276Z,3.80
2023-08-31T11:39:23.161Z,3.80
2023-08-31T11:40:23.253Z,4.40
2023-08-31T11:41:23.200Z,4.40
2023-08-31T11:42:23.178Z,5.00
2023-08-31T11:43:23.114Z,4.40
2023-08-31T11:44:23.680Z,3.40
2023-08-31T11:45:23.207Z,5.20
2023-08-31T11:46:23.171Z,5.90
2023-08-31T11:47:23.114Z,3.20
2023-08-31T11:48:23.154Z,2.90
2023-08-31T11:49:23.153Z,3.40
2023-08-31T11:50:23.182Z,9.00
2023-08-31T11:51:23.075Z,6.30
2023-08-31T11:52:23.130Z,2.90
2023-08-31T11:53:23.129Z,5.60
2023-08-31T11:54:23.116Z,4.00
2023-08-31T11:55:23.165Z,6.50
2023-08-31T11:56:23.094Z,4.90
2023-08-31T11:57:23.044Z,8.90
2023-08-31T11:58:23.085Z,3.60
2023-08-31T11:59:23.011Z,5.80
2023-08-31T12:00:23.036Z,5.00
2023-08-31T12:01:23.054Z,4.30
2023-08-31T12:02:23.096Z,4.00
2023-08-31T12:03:27.464Z,9.40
2023-08-31T12:04:24.109Z,4.20
2023-08-31T12:05:22.982Z,6.50
2023-08-31T12:06:23.021Z,4.40
2023-08-31T12:07:23.052Z,4.80
2023-08-31T12:08:23.066Z,3.10
2023-08-31T12:09:22.972Z,3.60
2023-08-31T12:10:23.009Z,6.00
2023-08-31T12:11:22.940Z,5.90
2023-08-31T12:12:22.893Z,5.30
2023-08-31T12:13:22.981Z,5.00
2023-08-31T12:14:23.362Z,4.30
2023-08-31T12:15:22.968Z,3.90
2023-08-31T12:16:23.016Z,4.30
2023-08-31T12:17:22.913Z,4.00
2023-08-31T12:18:22.873Z,7.20
2023-08-31T12:19:22.883Z,8.10
2023-08-31T12:20:22.991Z,6.90
2023-08-31T12:21:22.937Z,6.30
2023-08-31T12:22:22.866Z,6.70
2023-08-31T12:23:22.952Z,4.80
2023-08-31T12:24:22.829Z,13.50
2023-08-31T12:25:22.907Z,6.30
2023-08-31T12:26:22.868Z,5.10
2023-08-31T12:27:22.844Z,3.40
2023-08-31T12:28:22.894Z,4.90
2023-08-31T12:29:22.849Z,4.10
2023-08-31T12:30:22.888Z,6.40
2023-08-31T12:31:22.895Z,6.10
2023-08-31T12:32:22.886Z,7.10
2023-08-31T12:33:22.928Z,4.50
2023-08-31T12:34:22.777Z,4.60
2023-08-31T12:35:22.796Z,5.80
2023-08-31T12:36:22.798Z,3.90
2023-08-31T12:37:22.841Z,4.60
2023-08-31T12:38:23.851Z,6.00
2023-08-31T12:39:22.800Z,4.80
2023-08-31T12:40:22.812Z,3.90
2023-08-31T12:41:24.830Z,3.10
2023-08-31T12:42:24.171Z,4.00
2023-08-31T12:43:22.736Z,5.10
2023-08-31T12:44:22.782Z,3.70
2023-08-31T12:45:22.799Z,7.60
2023-08-31T12:46:22.757Z,4.70
2023-08-31T12:47:22.717Z,5.10
2023-08-31T12:48:22.744Z,4.50
2023-08-31T12:49:22.792Z,3.60
2023-08-31T12:50:22.792Z,4.80
2023-08-31T12:51:22.648Z,4.30
2023-08-31T12:52:24.828Z,4.30
2023-08-31T12:53:22.654Z,4.60
2023-08-31T12:54:22.718Z,6.60
2023-08-31T12:55:22.736Z,4.90
2023-08-31T12:56:22.787Z,5.40
2023-08-31T12:57:22.727Z,6.00
2023-08-31T12:58:22.677Z,5.80
2023-08-31T12:59:22.617Z,4.00
2023-08-31T13:00:22.693Z,7.20